PWSweather.com
Personal Weather Stations
Station Observations
WD4JKH
Forsyth, GA 31029

Forsyth, GA 31029

Lat: 33.033225, Lon: -83.927995

Elevation: 709

Station Type: Davis Vantage VUE

High Low Average
Temperature 61.3°F16.3°C 47.0°F8.3°C 53.3°F11.8°C
Dew Point 60.7°F15.9°C 36.9°F2.7°C 47.1°F8.4°C
Winds 11.2 mph 18.0 kmh 1.3 mph 2.1 kmh 5.0 mph E8.0 kmh E
Wind Gusts 17.0 mph27.4 kmh 6.0 mph9.7 kmh 13.0 mph20.9 kmh
Humidity 98% 61% 80%
Pressure 30.39 in1029.1 mb 30.08 in1018.6 mb -
Precipitation 0.12 in3.0 mm - -
Hour Temp Dew Point Humidity Winds Wind Gusts Pressure Precip Precip Rate Daily Precip Total
12:02 AM 49.7°F9.8°C 37.3°F2.9°C 62% 5.2 mph ENE8.4 kmh ENE 12.0 mph19.3 kmh 30.38 in1028.8 mb 0.00 in0.0 mm 0.00 in0.0 mm 0.00 in0.0 mm
12:08 AM 49.6°F9.8°C 37.2°F2.9°C 62% 5.8 mph ENE9.3 kmh ENE 12.0 mph19.3 kmh 30.38 in1028.8 mb 0.00 in0.0 mm 0.00 in0.0 mm 0.00 in0.0 mm
12:13 AM 49.6°F9.8°C 37.2°F2.9°C 62% 7.3 mph ENE11.7 kmh ENE 14.0 mph22.5 kmh 30.38 in1028.8 mb 0.00 in0.0 mm 0.00 in0.0 mm 0.00 in0.0 mm
12:17 AM 49.7°F9.8°C 37.3°F2.9°C 62% 7.3 mph ENE11.7 kmh ENE 14.0 mph22.5 kmh 30.38 in1028.8 mb 0.00 in0.0 mm 0.00 in0.0 mm 0.00 in0.0 mm
12:22 AM 49.7°F9.8°C 36.9°F2.7°C 61% 8.7 mph ENE14.0 kmh ENE 14.0 mph22.5 kmh 30.37 in1028.4 mb 0.00 in0.0 mm 0.00 in0.0 mm 0.00 in0.0 mm
12:28 AM 49.7°F9.8°C 36.9°F2.7°C 61% 8.5 mph ENE13.7 kmh ENE 14.0 mph22.5 kmh 30.38 in1028.8 mb 0.00 in0.0 mm 0.00 in0.0 mm 0.00 in0.0 mm
12:33 AM 49.8°F9.9°C 37.0°F2.8°C 61% 4.1 mph ENE6.6 kmh ENE 14.0 mph22.5 kmh 30.38 in1028.8 mb 0.00 in0.0 mm 0.00 in0.0 mm 0.00 in0.0 mm
12:38 AM 49.7°F9.8°C 37.3°F2.9°C 62% 2.3 mph NE3.7 kmh NE 14.0 mph22.5 kmh 30.38 in1028.8 mb 0.00 in0.0 mm 0.00 in0.0 mm 0.00 in0.0 mm
12:43 AM 49.7°F9.8°C 37.3°F2.9°C 62% 2.9 mph ENE4.7 kmh ENE 13.0 mph20.9 kmh 30.39 in1029.1 mb 0.00 in0.0 mm 0.00 in0.0 mm 0.00 in0.0 mm
12:48 AM 49.7°F9.8°C 37.3°F2.9°C 62% 3.8 mph NE6.1 kmh NE 12.0 mph19.3 kmh 30.38 in1028.8 mb 0.00 in0.0 mm 0.00 in0.0 mm 0.00 in0.0 mm
12:54 AM 49.6°F9.8°C 37.6°F3.1°C 63% 4.8 mph ENE7.7 kmh ENE 9.0 mph14.5 kmh 30.38 in1028.8 mb 0.00 in0.0 mm 0.00 in0.0 mm 0.00 in0.0 mm
12:59 AM 49.5°F9.7°C 37.5°F3.1°C 63% 5.8 mph ENE9.3 kmh ENE 12.0 mph19.3 kmh 30.37 in1028.4 mb 0.00 in0.0 mm 0.00 in0.0 mm 0.00 in0.0 mm
01:04 AM 49.4°F9.7°C 37.4°F3.0°C 63% 3.8 mph ENE6.1 kmh ENE 12.0 mph19.3 kmh 30.38 in1028.8 mb 0.00 in0.0 mm 0.00 in0.0 mm 0.00 in0.0 mm
01:09 AM 49.4°F9.7°C 37.4°F3.0°C 63% 5.4 mph ENE8.7 kmh ENE 12.0 mph19.3 kmh 30.37 in1028.4 mb 0.00 in0.0 mm 0.00 in0.0 mm 0.00 in0.0 mm
01:14 AM 49.3°F9.6°C 37.3°F2.9°C 63% 4.4 mph ENE7.1 kmh ENE 12.0 mph19.3 kmh 30.37 in1028.4 mb 0.00 in0.0 mm 0.00 in0.0 mm 0.00 in0.0 mm
01:20 AM 49.3°F9.6°C 37.3°F2.9°C 63% 5.0 mph ENE8.0 kmh ENE 11.0 mph17.7 kmh 30.36 in1028.1 mb 0.00 in0.0 mm 0.00 in0.0 mm 0.00 in0.0 mm
01:25 AM 49.2°F9.6°C 37.6°F3.1°C 64% 3.4 mph ENE5.5 kmh ENE 11.0 mph17.7 kmh 30.36 in1028.1 mb 0.00 in0.0 mm 0.00 in0.0 mm 0.00 in0.0 mm
01:30 AM 49.1°F9.5°C 37.6°F3.1°C 64% 3.5 mph NE5.6 kmh NE 11.0 mph17.7 kmh 30.37 in1028.4 mb 0.00 in0.0 mm 0.00 in0.0 mm 0.00 in0.0 mm
01:35 AM 49.1°F9.5°C 37.6°F3.1°C 64% 4.7 mph ENE7.6 kmh ENE 11.0 mph17.7 kmh 30.37 in1028.4 mb 0.00 in0.0 mm 0.00 in0.0 mm 0.00 in0.0 mm
01:40 AM 49.0°F9.4°C 37.3°F2.9°C 64% 5.5 mph ENE8.9 kmh ENE 12.0 mph19.3 kmh 30.36 in1028.1 mb 0.00 in0.0 mm 0.00 in0.0 mm 0.00 in0.0 mm
01:46 AM 48.9°F9.4°C 37.4°F3.0°C 64% 5.2 mph ENE8.4 kmh ENE 12.0 mph19.3 kmh 30.36 in1028.1 mb 0.00 in0.0 mm 0.00 in0.0 mm 0.00 in0.0 mm
01:51 AM 48.8°F9.3°C 37.3°F2.9°C 64% 3.8 mph NE6.1 kmh NE 12.0 mph19.3 kmh 30.36 in1028.1 mb 0.00 in0.0 mm 0.00 in0.0 mm 0.00 in0.0 mm
01:56 AM 48.7°F9.3°C 37.2°F2.9°C 64% 4.8 mph ENE7.7 kmh ENE 11.0 mph17.7 kmh 30.36 in1028.1 mb 0.00 in0.0 mm 0.00 in0.0 mm 0.00 in0.0 mm
02:01 AM 48.7°F9.3°C 37.2°F2.9°C 64% 3.6 mph NE5.8 kmh NE 13.0 mph20.9 kmh 30.37 in1028.4 mb 0.00 in0.0 mm 0.00 in0.0 mm 0.00 in0.0 mm
02:06 AM 48.7°F9.3°C 37.2°F2.9°C 64% 6.4 mph ENE10.3 kmh ENE 13.0 mph20.9 kmh 30.36 in1028.1 mb 0.00 in0.0 mm 0.00 in0.0 mm 0.00 in0.0 mm
02:12 AM 48.7°F9.3°C 37.2°F2.9°C 64% 5.9 mph ENE9.5 kmh ENE 13.0 mph20.9 kmh 30.37 in1028.4 mb 0.00 in0.0 mm 0.00 in0.0 mm 0.00 in0.0 mm
02:17 AM 48.6°F9.2°C 37.1°F2.8°C 64% 4.2 mph NE6.8 kmh NE 10.0 mph16.1 kmh 30.37 in1028.4 mb 0.00 in0.0 mm 0.00 in0.0 mm 0.00 in0.0 mm
02:22 AM 48.7°F9.3°C 37.2°F2.9°C 64% 4.4 mph NE7.1 kmh NE 12.0 mph19.3 kmh 30.38 in1028.8 mb 0.00 in0.0 mm 0.00 in0.0 mm 0.00 in0.0 mm
02:27 AM 48.7°F9.3°C 37.2°F2.9°C 64% 3.1 mph NE5.0 kmh NE 12.0 mph19.3 kmh 30.38 in1028.8 mb 0.00 in0.0 mm 0.00 in0.0 mm 0.00 in0.0 mm
02:32 AM 48.7°F9.3°C 37.2°F2.9°C 64% 2.8 mph NE4.5 kmh NE 12.0 mph19.3 kmh 30.38 in1028.8 mb 0.00 in0.0 mm 0.00 in0.0 mm 0.00 in0.0 mm
02:38 AM 48.7°F9.3°C 37.2°F2.9°C 64% 1.8 mph NE2.9 kmh NE 12.0 mph19.3 kmh 30.39 in1029.1 mb 0.00 in0.0 mm 0.00 in0.0 mm 0.00 in0.0 mm
02:43 AM 48.7°F9.3°C 37.2°F2.9°C 64% 3.5 mph NE5.6 kmh NE 10.0 mph16.1 kmh 30.39 in1029.1 mb 0.00 in0.0 mm 0.00 in0.0 mm 0.00 in0.0 mm
02:48 AM 48.7°F9.3°C 37.2°F2.9°C 64% 6.3 mph NE10.1 kmh NE 10.0 mph16.1 kmh 30.38 in1028.8 mb 0.00 in0.0 mm 0.00 in0.0 mm 0.00 in0.0 mm
02:53 AM 48.7°F9.3°C 37.2°F2.9°C 64% 5.5 mph ENE8.9 kmh ENE 12.0 mph19.3 kmh 30.38 in1028.8 mb 0.00 in0.0 mm 0.00 in0.0 mm 0.00 in0.0 mm
02:58 AM 48.7°F9.3°C 37.2°F2.9°C 64% 3.9 mph NE6.3 kmh NE 12.0 mph19.3 kmh 30.38 in1028.8 mb 0.00 in0.0 mm 0.00 in0.0 mm 0.00 in0.0 mm
03:04 AM 48.7°F9.3°C 37.2°F2.9°C 64% 5.7 mph ENE9.2 kmh ENE 12.0 mph19.3 kmh 30.38 in1028.8 mb 0.00 in0.0 mm 0.00 in0.0 mm 0.00 in0.0 mm
03:09 AM 48.7°F9.3°C 37.2°F2.9°C 64% 4.9 mph ENE7.9 kmh ENE 12.0 mph19.3 kmh 30.38 in1028.8 mb 0.00 in0.0 mm 0.00 in0.0 mm 0.00 in0.0 mm
03:14 AM 48.7°F9.3°C 37.2°F2.9°C 64% 6.2 mph ENE10.0 kmh ENE 12.0 mph19.3 kmh 30.38 in1028.8 mb 0.00 in0.0 mm 0.00 in0.0 mm 0.00 in0.0 mm
03:19 AM 48.7°F9.3°C 37.2°F2.9°C 64% 4.6 mph ENE7.4 kmh ENE 12.0 mph19.3 kmh 30.38 in1028.8 mb 0.00 in0.0 mm 0.00 in0.0 mm 0.00 in0.0 mm
03:24 AM 48.6°F9.2°C 37.1°F2.8°C 64% 4.4 mph ENE7.1 kmh ENE 12.0 mph19.3 kmh 30.38 in1028.8 mb 0.00 in0.0 mm 0.00 in0.0 mm 0.00 in0.0 mm
03:30 AM 48.5°F9.2°C 36.9°F2.7°C 64% 6.7 mph ENE10.8 kmh ENE 12.0 mph19.3 kmh 30.38 in1028.8 mb 0.00 in0.0 mm 0.00 in0.0 mm 0.00 in0.0 mm
03:35 AM 48.5°F9.2°C 37.4°F3.0°C 65% 2.7 mph NE4.3 kmh NE 12.0 mph19.3 kmh 30.37 in1028.4 mb 0.00 in0.0 mm 0.00 in0.0 mm 0.00 in0.0 mm
03:40 AM 48.4°F9.1°C 37.3°F2.9°C 65% 6.7 mph ENE10.8 kmh ENE 14.0 mph22.5 kmh 30.37 in1028.4 mb 0.00 in0.0 mm 0.00 in0.0 mm 0.00 in0.0 mm
03:45 AM 48.3°F9.1°C 37.2°F2.9°C 65% 8.3 mph NE13.4 kmh NE 15.0 mph24.1 kmh 30.36 in1028.1 mb 0.00 in0.0 mm 0.00 in0.0 mm 0.00 in0.0 mm
03:50 AM 48.1°F8.9°C 37.0°F2.8°C 65% 8.9 mph ENE14.3 kmh ENE 15.0 mph24.1 kmh 30.36 in1028.1 mb 0.00 in0.0 mm 0.00 in0.0 mm 0.00 in0.0 mm
03:56 AM 48.0°F8.9°C 37.3°F2.9°C 66% 6.8 mph NE10.9 kmh NE 15.0 mph24.1 kmh 30.35 in1027.8 mb 0.00 in0.0 mm 0.00 in0.0 mm 0.00 in0.0 mm
04:01 AM 48.0°F8.9°C 37.3°F2.9°C 66% 5.3 mph ENE8.5 kmh ENE 15.0 mph24.1 kmh 30.35 in1027.8 mb 0.00 in0.0 mm 0.00 in0.0 mm 0.00 in0.0 mm
04:06 AM 47.9°F8.8°C 37.2°F2.9°C 66% 6.6 mph ENE10.6 kmh ENE 14.0 mph22.5 kmh 30.35 in1027.8 mb 0.00 in0.0 mm 0.00 in0.0 mm 0.00 in0.0 mm
04:11 AM 47.9°F8.8°C 37.1°F2.8°C 66% 3.4 mph ENE5.5 kmh ENE 14.0 mph22.5 kmh 30.35 in1027.8 mb 0.00 in0.0 mm 0.00 in0.0 mm 0.00 in0.0 mm
04:16 AM 47.8°F8.8°C 37.1°F2.8°C 66% 6.2 mph NE10.0 kmh NE 14.0 mph22.5 kmh 30.34 in1027.4 mb 0.00 in0.0 mm 0.00 in0.0 mm 0.00 in0.0 mm
04:22 AM 47.8°F8.8°C 37.5°F3.1°C 67% 7.8 mph NE12.6 kmh NE 15.0 mph24.1 kmh 30.34 in1027.4 mb 0.00 in0.0 mm 0.00 in0.0 mm 0.00 in0.0 mm
04:27 AM 47.7°F8.7°C 37.4°F3.0°C 67% 6.2 mph NE10.0 kmh NE 15.0 mph24.1 kmh 30.33 in1027.1 mb 0.00 in0.0 mm 0.00 in0.0 mm 0.00 in0.0 mm
04:32 AM 47.7°F8.7°C 37.4°F3.0°C 67% 4.7 mph ENE7.6 kmh ENE 15.0 mph24.1 kmh 30.33 in1027.1 mb 0.00 in0.0 mm 0.00 in0.0 mm 0.00 in0.0 mm
04:37 AM 47.7°F8.7°C 37.8°F3.2°C 68% 6.0 mph NE9.7 kmh NE 15.0 mph24.1 kmh 30.33 in1027.1 mb 0.00 in0.0 mm 0.00 in0.0 mm 0.00 in0.0 mm
04:42 AM 47.7°F8.7°C 37.7°F3.2°C 68% 7.1 mph NE11.4 kmh NE 15.0 mph24.1 kmh 30.33 in1027.1 mb 0.00 in0.0 mm 0.00 in0.0 mm 0.00 in0.0 mm
04:48 AM 47.7°F8.7°C 37.8°F3.2°C 68% 5.8 mph ENE9.3 kmh ENE 15.0 mph24.1 kmh 30.34 in1027.4 mb 0.00 in0.0 mm 0.00 in0.0 mm 0.00 in0.0 mm
04:53 AM 47.7°F8.7°C 38.1°F3.4°C 69% 3.6 mph NE5.8 kmh NE 15.0 mph24.1 kmh 30.34 in1027.4 mb 0.00 in0.0 mm 0.00 in0.0 mm 0.00 in0.0 mm
04:58 AM 47.7°F8.7°C 38.1°F3.4°C 69% 5.6 mph ENE9.0 kmh ENE 13.0 mph20.9 kmh 30.34 in1027.4 mb 0.00 in0.0 mm 0.00 in0.0 mm 0.00 in0.0 mm
05:03 AM 47.8°F8.8°C 38.5°F3.6°C 70% 4.7 mph ENE7.6 kmh ENE 11.0 mph17.7 kmh 30.34 in1027.4 mb 0.00 in0.0 mm 0.00 in0.0 mm 0.00 in0.0 mm
05:08 AM 47.7°F8.7°C 38.5°F3.6°C 70% 4.8 mph ENE7.7 kmh ENE 12.0 mph19.3 kmh 30.33 in1027.1 mb 0.00 in0.0 mm 0.00 in0.0 mm 0.00 in0.0 mm
05:13 AM 47.7°F8.7°C 38.8°F3.8°C 71% 4.5 mph ENE7.2 kmh ENE 12.0 mph19.3 kmh 30.33 in1027.1 mb 0.00 in0.0 mm 0.00 in0.0 mm 0.00 in0.0 mm
05:18 AM 47.7°F8.7°C 38.8°F3.8°C 71% 3.8 mph ENE6.1 kmh ENE 12.0 mph19.3 kmh 30.34 in1027.4 mb 0.00 in0.0 mm 0.00 in0.0 mm 0.00 in0.0 mm
05:23 AM 47.7°F8.7°C 39.2°F4.0°C 72% 5.1 mph ENE8.2 kmh ENE 12.0 mph19.3 kmh 30.34 in1027.4 mb 0.00 in0.0 mm 0.00 in0.0 mm 0.00 in0.0 mm
05:28 AM 47.7°F8.7°C 39.2°F4.0°C 72% 5.1 mph ENE8.2 kmh ENE 13.0 mph20.9 kmh 30.33 in1027.1 mb 0.00 in0.0 mm 0.00 in0.0 mm 0.00 in0.0 mm
05:33 AM 47.7°F8.7°C 39.6°F4.2°C 73% 4.2 mph ENE6.8 kmh ENE 13.0 mph20.9 kmh 30.33 in1027.1 mb 0.00 in0.0 mm 0.00 in0.0 mm 0.00 in0.0 mm
05:39 AM 47.7°F8.7°C 39.6°F4.2°C 73% 5.2 mph ENE8.4 kmh ENE 13.0 mph20.9 kmh 30.33 in1027.1 mb 0.00 in0.0 mm 0.00 in0.0 mm 0.00 in0.0 mm
05:44 AM 47.6°F8.7°C 39.8°F4.3°C 74% 4.9 mph ENE7.9 kmh ENE 13.0 mph20.9 kmh 30.33 in1027.1 mb 0.00 in0.0 mm 0.00 in0.0 mm 0.00 in0.0 mm
05:49 AM 47.7°F8.7°C 40.2°F4.6°C 75% 6.0 mph E9.7 kmh E 13.0 mph20.9 kmh 30.33 in1027.1 mb 0.00 in0.0 mm 0.00 in0.0 mm 0.00 in0.0 mm
05:54 AM 47.7°F8.7°C 40.2°F4.6°C 75% 6.6 mph E10.6 kmh E 15.0 mph24.1 kmh 30.34 in1027.4 mb 0.00 in0.0 mm 0.00 in0.0 mm 0.00 in0.0 mm
05:59 AM 47.7°F8.7°C 40.2°F4.6°C 75% 5.1 mph E8.2 kmh E 15.0 mph24.1 kmh 30.34 in1027.4 mb 0.00 in0.0 mm 0.00 in0.0 mm 0.00 in0.0 mm
06:05 AM 47.7°F8.7°C 40.6°F4.8°C 76% 5.1 mph ENE8.2 kmh ENE 15.0 mph24.1 kmh 30.34 in1027.4 mb 0.00 in0.0 mm 0.00 in0.0 mm 0.00 in0.0 mm
06:10 AM 47.6°F8.7°C 40.4°F4.7°C 76% 6.0 mph ENE9.7 kmh ENE 15.0 mph24.1 kmh 30.34 in1027.4 mb 0.00 in0.0 mm 0.00 in0.0 mm 0.00 in0.0 mm
06:15 AM 47.6°F8.7°C 40.5°F4.7°C 76% 3.3 mph ENE5.3 kmh ENE 14.0 mph22.5 kmh 30.35 in1027.8 mb 0.00 in0.0 mm 0.00 in0.0 mm 0.00 in0.0 mm
06:20 AM 47.6°F8.7°C 40.8°F4.9°C 77% 2.6 mph ENE4.2 kmh ENE 14.0 mph22.5 kmh 30.35 in1027.8 mb 0.00 in0.0 mm 0.00 in0.0 mm 0.00 in0.0 mm
06:25 AM 47.6°F8.7°C 40.8°F4.9°C 77% 3.8 mph ENE6.1 kmh ENE 12.0 mph19.3 kmh 30.35 in1027.8 mb 0.00 in0.0 mm 0.00 in0.0 mm 0.00 in0.0 mm
06:31 AM 47.6°F8.7°C 40.8°F4.9°C 77% 4.1 mph ENE6.6 kmh ENE 11.0 mph17.7 kmh 30.35 in1027.8 mb 0.00 in0.0 mm 0.00 in0.0 mm 0.00 in0.0 mm
06:36 AM 47.6°F8.7°C 41.1°F5.1°C 78% 4.1 mph E6.6 kmh E 10.0 mph16.1 kmh 30.35 in1027.8 mb 0.00 in0.0 mm 0.00 in0.0 mm 0.00 in0.0 mm
06:41 AM 47.6°F8.7°C 41.1°F5.1°C 78% 5.5 mph ENE8.9 kmh ENE 10.0 mph16.1 kmh 30.34 in1027.4 mb 0.00 in0.0 mm 0.00 in0.0 mm 0.00 in0.0 mm
06:46 AM 47.6°F8.7°C 41.1°F5.1°C 78% 5.7 mph E9.2 kmh E 13.0 mph20.9 kmh 30.33 in1027.1 mb 0.00 in0.0 mm 0.00 in0.0 mm 0.00 in0.0 mm
06:51 AM 47.5°F8.6°C 41.0°F5.0°C 78% 5.4 mph ENE8.7 kmh ENE 13.0 mph20.9 kmh 30.32 in1026.8 mb 0.00 in0.0 mm 0.00 in0.0 mm 0.00 in0.0 mm
06:57 AM 47.4°F8.6°C 40.9°F4.9°C 78% 6.5 mph ENE10.5 kmh ENE 13.0 mph20.9 kmh 30.33 in1027.1 mb 0.00 in0.0 mm 0.00 in0.0 mm 0.00 in0.0 mm
07:02 AM 47.4°F8.6°C 40.9°F4.9°C 78% 9.6 mph ENE15.4 kmh ENE 15.0 mph24.1 kmh 30.33 in1027.1 mb 0.00 in0.0 mm 0.00 in0.0 mm 0.00 in0.0 mm
07:07 AM 47.3°F8.5°C 40.8°F4.9°C 78% 8.0 mph ENE12.9 kmh ENE 15.0 mph24.1 kmh 30.33 in1027.1 mb 0.00 in0.0 mm 0.00 in0.0 mm 0.00 in0.0 mm
07:12 AM 47.2°F8.4°C 40.7°F4.8°C 78% 7.1 mph E11.4 kmh E 15.0 mph24.1 kmh 30.33 in1027.1 mb 0.00 in0.0 mm 0.00 in0.0 mm 0.00 in0.0 mm
07:18 AM 47.1°F8.4°C 40.6°F4.8°C 78% 7.4 mph E11.9 kmh E 15.0 mph24.1 kmh 30.33 in1027.1 mb 0.00 in0.0 mm 0.00 in0.0 mm 0.00 in0.0 mm
07:23 AM 47.1°F8.4°C 40.6°F4.8°C 78% 6.7 mph ENE10.8 kmh ENE 14.0 mph22.5 kmh 30.33 in1027.1 mb 0.00 in0.0 mm 0.00 in0.0 mm 0.00 in0.0 mm
07:28 AM 47.1°F8.4°C 40.6°F4.8°C 78% 7.8 mph ENE12.6 kmh ENE 14.0 mph22.5 kmh 30.33 in1027.1 mb 0.00 in0.0 mm 0.00 in0.0 mm 0.00 in0.0 mm
07:33 AM 47.1°F8.4°C 41.0°F5.0°C 79% 6.5 mph ENE10.5 kmh ENE 14.0 mph22.5 kmh 30.33 in1027.1 mb 0.00 in0.0 mm 0.00 in0.0 mm 0.00 in0.0 mm
07:38 AM 47.0°F8.3°C 40.9°F4.9°C 79% 5.5 mph ENE8.9 kmh ENE 14.0 mph22.5 kmh 30.33 in1027.1 mb 0.00 in0.0 mm 0.00 in0.0 mm 0.00 in0.0 mm
07:44 AM 47.0°F8.3°C 40.9°F4.9°C 79% 5.8 mph ENE9.3 kmh ENE 14.0 mph22.5 kmh 30.34 in1027.4 mb 0.00 in0.0 mm 0.00 in0.0 mm 0.00 in0.0 mm
07:49 AM 47.1°F8.4°C 41.0°F5.0°C 79% 7.4 mph ENE11.9 kmh ENE 14.0 mph22.5 kmh 30.33 in1027.1 mb 0.00 in0.0 mm 0.00 in0.0 mm 0.00 in0.0 mm
07:54 AM 47.1°F8.4°C 41.0°F5.0°C 79% 8.3 mph ENE13.4 kmh ENE 16.0 mph25.7 kmh 30.33 in1027.1 mb 0.00 in0.0 mm 0.00 in0.0 mm 0.00 in0.0 mm
07:59 AM 47.1°F8.4°C 41.0°F5.0°C 79% 5.2 mph E8.4 kmh E 16.0 mph25.7 kmh 30.33 in1027.1 mb 0.00 in0.0 mm 0.00 in0.0 mm 0.00 in0.0 mm
08:04 AM 47.1°F8.4°C 40.9°F4.9°C 79% 9.5 mph E15.3 kmh E 16.0 mph25.7 kmh 30.33 in1027.1 mb 0.00 in0.0 mm 0.00 in0.0 mm 0.00 in0.0 mm
08:10 AM 47.2°F8.4°C 41.0°F5.0°C 79% 6.7 mph ENE10.8 kmh ENE 16.0 mph25.7 kmh 30.33 in1027.1 mb 0.00 in0.0 mm 0.00 in0.0 mm 0.00 in0.0 mm
08:15 AM 47.2°F8.4°C 41.1°F5.1°C 79% 6.8 mph ENE10.9 kmh ENE 16.0 mph25.7 kmh 30.33 in1027.1 mb 0.00 in0.0 mm 0.00 in0.0 mm 0.00 in0.0 mm
08:20 AM 47.3°F8.5°C 41.5°F5.3°C 80% 6.4 mph ENE10.3 kmh ENE 16.0 mph25.7 kmh 30.33 in1027.1 mb 0.00 in0.0 mm 0.00 in0.0 mm 0.00 in0.0 mm
08:25 AM 47.3°F8.5°C 41.5°F5.3°C 80% 7.2 mph ENE11.6 kmh ENE 16.0 mph25.7 kmh 30.34 in1027.4 mb 0.00 in0.0 mm 0.00 in0.0 mm 0.00 in0.0 mm
08:30 AM 47.3°F8.5°C 41.4°F5.2°C 80% 6.8 mph ENE10.9 kmh ENE 16.0 mph25.7 kmh 30.33 in1027.1 mb 0.00 in0.0 mm 0.00 in0.0 mm 0.00 in0.0 mm
08:36 AM 47.3°F8.5°C 41.5°F5.3°C 80% 5.2 mph ENE8.4 kmh ENE 15.0 mph24.1 kmh 30.32 in1026.8 mb 0.00 in0.0 mm 0.00 in0.0 mm 0.00 in0.0 mm
08:41 AM 47.4°F8.6°C 41.6°F5.3°C 80% 6.3 mph ENE10.1 kmh ENE 13.0 mph20.9 kmh 30.33 in1027.1 mb 0.00 in0.0 mm 0.00 in0.0 mm 0.00 in0.0 mm
08:46 AM 47.5°F8.6°C 42.0°F5.6°C 81% 6.4 mph E10.3 kmh E 13.0 mph20.9 kmh 30.33 in1027.1 mb 0.00 in0.0 mm 0.00 in0.0 mm 0.00 in0.0 mm
08:51 AM 47.6°F8.7°C 41.8°F5.4°C 80% 6.1 mph ENE9.8 kmh ENE 13.0 mph20.9 kmh 30.33 in1027.1 mb 0.00 in0.0 mm 0.00 in0.0 mm 0.00 in0.0 mm
08:56 AM 47.6°F8.7°C 41.8°F5.4°C 80% 5.4 mph E8.7 kmh E 14.0 mph22.5 kmh 30.33 in1027.1 mb 0.00 in0.0 mm 0.00 in0.0 mm 0.00 in0.0 mm
09:02 AM 47.6°F8.7°C 41.8°F5.4°C 80% 5.3 mph ENE8.5 kmh ENE 14.0 mph22.5 kmh 30.33 in1027.1 mb 0.00 in0.0 mm 0.00 in0.0 mm 0.00 in0.0 mm
09:07 AM 47.6°F8.7°C 42.1°F5.6°C 81% 5.7 mph ENE9.2 kmh ENE 14.0 mph22.5 kmh 30.33 in1027.1 mb 0.00 in0.0 mm 0.00 in0.0 mm 0.00 in0.0 mm
09:12 AM 47.7°F8.7°C 42.2°F5.7°C 81% 6.2 mph ENE10.0 kmh ENE 14.0 mph22.5 kmh 30.33 in1027.1 mb 0.00 in0.0 mm 0.00 in0.0 mm 0.00 in0.0 mm
09:17 AM 47.7°F8.7°C 42.2°F5.7°C 81% 9.1 mph ENE14.6 kmh ENE 14.0 mph22.5 kmh 30.34 in1027.4 mb 0.00 in0.0 mm 0.00 in0.0 mm 0.00 in0.0 mm
09:22 AM 47.8°F8.8°C 42.3°F5.7°C 81% 6.1 mph ENE9.8 kmh ENE 13.0 mph20.9 kmh 30.33 in1027.1 mb 0.00 in0.0 mm 0.00 in0.0 mm 0.00 in0.0 mm
09:28 AM 47.9°F8.8°C 42.4°F5.8°C 81% 5.1 mph ENE8.2 kmh ENE 13.0 mph20.9 kmh 30.34 in1027.4 mb 0.00 in0.0 mm 0.00 in0.0 mm 0.00 in0.0 mm
09:33 AM 48.2°F9.0°C 42.7°F5.9°C 81% 7.1 mph E11.4 kmh E 14.0 mph22.5 kmh 30.35 in1027.8 mb 0.00 in0.0 mm 0.00 in0.0 mm 0.00 in0.0 mm
09:38 AM 48.4°F9.1°C 42.9°F6.1°C 81% 6.3 mph E10.1 kmh E 14.0 mph22.5 kmh 30.35 in1027.8 mb 0.00 in0.0 mm 0.00 in0.0 mm 0.00 in0.0 mm
09:43 AM 48.6°F9.2°C 43.1°F6.2°C 81% 6.9 mph E11.1 kmh E 14.0 mph22.5 kmh 30.35 in1027.8 mb 0.00 in0.0 mm 0.00 in0.0 mm 0.00 in0.0 mm
09:48 AM 48.9°F9.4°C 43.3°F6.3°C 81% 6.5 mph E10.5 kmh E 14.0 mph22.5 kmh 30.34 in1027.4 mb 0.00 in0.0 mm 0.00 in0.0 mm 0.00 in0.0 mm
09:54 AM 49.0°F9.4°C 43.4°F6.3°C 81% 5.9 mph E9.5 kmh E 13.0 mph20.9 kmh 30.34 in1027.4 mb 0.00 in0.0 mm 0.00 in0.0 mm 0.00 in0.0 mm
09:59 AM 49.2°F9.6°C 43.3°F6.3°C 80% 7.5 mph E12.1 kmh E 14.0 mph22.5 kmh 30.35 in1027.8 mb 0.00 in0.0 mm 0.00 in0.0 mm 0.00 in0.0 mm
10:04 AM 49.3°F9.6°C 43.4°F6.3°C 80% 9.2 mph E14.8 kmh E 15.0 mph24.1 kmh 30.34 in1027.4 mb 0.00 in0.0 mm 0.00 in0.0 mm 0.00 in0.0 mm
10:09 AM 49.4°F9.7°C 43.8°F6.6°C 81% 7.1 mph ENE11.4 kmh ENE 16.0 mph25.7 kmh 30.34 in1027.4 mb 0.00 in0.0 mm 0.00 in0.0 mm 0.00 in0.0 mm
10:13 AM 49.5°F9.7°C 43.6°F6.4°C 80% 9.9 mph E15.9 kmh E 17.0 mph27.4 kmh 30.33 in1027.1 mb 0.00 in0.0 mm 0.00 in0.0 mm 0.00 in0.0 mm
10:19 AM 49.5°F9.7°C 43.6°F6.4°C 80% 11.2 mph E18.0 kmh E 17.0 mph27.4 kmh 30.33 in1027.1 mb 0.00 in0.0 mm 0.00 in0.0 mm 0.00 in0.0 mm
10:24 AM 49.7°F9.8°C 43.8°F6.6°C 80% 6.7 mph E10.8 kmh E 17.0 mph27.4 kmh 30.33 in1027.1 mb 0.00 in0.0 mm 0.00 in0.0 mm 0.00 in0.0 mm
10:29 AM 49.9°F9.9°C 44.0°F6.7°C 80% 5.7 mph ENE9.2 kmh ENE 17.0 mph27.4 kmh 30.33 in1027.1 mb 0.00 in0.0 mm 0.00 in0.0 mm 0.00 in0.0 mm
10:34 AM 49.9°F9.9°C 44.0°F6.7°C 80% 9.8 mph E15.8 kmh E 17.0 mph27.4 kmh 30.32 in1026.8 mb 0.00 in0.0 mm 0.00 in0.0 mm 0.00 in0.0 mm
10:39 AM 50.1°F10.1°C 44.2°F6.8°C 80% 8.2 mph E13.2 kmh E 14.0 mph22.5 kmh 30.32 in1026.8 mb 0.00 in0.0 mm 0.00 in0.0 mm 0.00 in0.0 mm
10:45 AM 50.4°F10.2°C 44.5°F6.9°C 80% 6.0 mph E9.7 kmh E 14.0 mph22.5 kmh 30.31 in1026.4 mb 0.00 in0.0 mm 0.00 in0.0 mm 0.00 in0.0 mm
10:50 AM 50.7°F10.4°C 44.8°F7.1°C 80% 6.8 mph E10.9 kmh E 14.0 mph22.5 kmh 30.31 in1026.4 mb 0.00 in0.0 mm 0.00 in0.0 mm 0.00 in0.0 mm
10:55 AM 51.0°F10.6°C 45.1°F7.3°C 80% 4.9 mph E7.9 kmh E 14.0 mph22.5 kmh 30.31 in1026.4 mb 0.00 in0.0 mm 0.00 in0.0 mm 0.00 in0.0 mm
11:00 AM 51.3°F10.7°C 45.0°F7.2°C 79% 8.5 mph E13.7 kmh E 14.0 mph22.5 kmh 30.31 in1026.4 mb 0.00 in0.0 mm 0.00 in0.0 mm 0.00 in0.0 mm
11:05 AM 51.6°F10.9°C 45.7°F7.6°C 80% 6.9 mph ENE11.1 kmh ENE 15.0 mph24.1 kmh 30.30 in1026.1 mb 0.00 in0.0 mm 0.00 in0.0 mm 0.00 in0.0 mm
11:11 AM 52.2°F11.2°C 45.9°F7.7°C 79% 6.1 mph ENE9.8 kmh ENE 15.0 mph24.1 kmh 30.29 in1025.7 mb 0.00 in0.0 mm 0.00 in0.0 mm 0.00 in0.0 mm
11:16 AM 52.8°F11.6°C 46.1°F7.8°C 78% 5.7 mph E9.2 kmh E 15.0 mph24.1 kmh 30.28 in1025.4 mb 0.00 in0.0 mm 0.00 in0.0 mm 0.00 in0.0 mm
11:21 AM 53.3°F11.8°C 46.7°F8.2°C 78% 6.7 mph E10.8 kmh E 15.0 mph24.1 kmh 30.29 in1025.7 mb 0.00 in0.0 mm 0.00 in0.0 mm 0.00 in0.0 mm
11:26 AM 53.6°F12.0°C 47.2°F8.4°C 79% 5.4 mph E8.7 kmh E 12.0 mph19.3 kmh 30.28 in1025.4 mb 0.00 in0.0 mm 0.00 in0.0 mm 0.00 in0.0 mm
11:31 AM 53.7°F12.1°C 47.4°F8.6°C 79% 6.1 mph E9.8 kmh E 12.0 mph19.3 kmh 30.29 in1025.7 mb 0.00 in0.0 mm 0.00 in0.0 mm 0.00 in0.0 mm
11:37 AM 53.7°F12.1°C 47.7°F8.7°C 80% 5.5 mph E8.9 kmh E 14.0 mph22.5 kmh 30.29 in1025.7 mb 0.00 in0.0 mm 0.00 in0.0 mm 0.00 in0.0 mm
11:42 AM 53.8°F12.1°C 47.8°F8.8°C 80% 6.6 mph E10.6 kmh E 14.0 mph22.5 kmh 30.28 in1025.4 mb 0.00 in0.0 mm 0.00 in0.0 mm 0.00 in0.0 mm
11:47 AM 53.8°F12.1°C 47.8°F8.8°C 80% 7.4 mph E11.9 kmh E 14.0 mph22.5 kmh 30.28 in1025.4 mb 0.00 in0.0 mm 0.00 in0.0 mm 0.00 in0.0 mm
11:52 AM 53.9°F12.2°C 47.5°F8.6°C 79% 4.1 mph NE6.6 kmh NE 14.0 mph22.5 kmh 30.28 in1025.4 mb 0.00 in0.0 mm 0.00 in0.0 mm 0.00 in0.0 mm
11:57 AM 53.9°F12.2°C 47.6°F8.7°C 79% 2.6 mph ENE4.2 kmh ENE 12.0 mph19.3 kmh 30.27 in1025.1 mb 0.00 in0.0 mm 0.00 in0.0 mm 0.00 in0.0 mm
12:03 PM 53.7°F12.1°C 47.4°F8.6°C 79% 5.3 mph E8.5 kmh E 12.0 mph19.3 kmh 30.26 in1024.7 mb 0.00 in0.0 mm 0.00 in0.0 mm 0.00 in0.0 mm
12:08 PM 53.7°F12.1°C 47.7°F8.7°C 80% 5.0 mph ENE8.0 kmh ENE 12.0 mph19.3 kmh 30.26 in1024.7 mb 0.00 in0.0 mm 0.00 in0.0 mm 0.00 in0.0 mm
12:13 PM 53.9°F12.2°C 47.9°F8.8°C 80% 2.8 mph ENE4.5 kmh ENE 12.0 mph19.3 kmh 30.25 in1024.4 mb 0.00 in0.0 mm 0.00 in0.0 mm 0.00 in0.0 mm
12:18 PM 54.2°F12.3°C 48.2°F9.0°C 80% 1.6 mph E2.6 kmh E 12.0 mph19.3 kmh 30.25 in1024.4 mb 0.00 in0.0 mm 0.00 in0.0 mm 0.00 in0.0 mm
12:23 PM 54.3°F12.4°C 48.3°F9.1°C 80% 2.9 mph E4.7 kmh E 10.0 mph16.1 kmh 30.25 in1024.4 mb 0.00 in0.0 mm 0.00 in0.0 mm 0.00 in0.0 mm
12:29 PM 54.4°F12.4°C 48.4°F9.1°C 80% 3.6 mph ENE5.8 kmh ENE 11.0 mph17.7 kmh 30.24 in1024.0 mb 0.00 in0.0 mm 0.00 in0.0 mm 0.00 in0.0 mm
12:34 PM 54.6°F12.6°C 48.6°F9.2°C 80% 3.2 mph E5.1 kmh E 11.0 mph17.7 kmh 30.24 in1024.0 mb 0.00 in0.0 mm 0.00 in0.0 mm 0.00 in0.0 mm
12:39 PM 55.0°F12.8°C 49.0°F9.4°C 80% 5.6 mph E9.0 kmh E 11.0 mph17.7 kmh 30.23 in1023.7 mb 0.00 in0.0 mm 0.00 in0.0 mm 0.00 in0.0 mm
12:44 PM 55.2°F12.9°C 48.9°F9.4°C 79% 8.2 mph E13.2 kmh E 11.0 mph17.7 kmh 30.22 in1023.4 mb 0.00 in0.0 mm 0.00 in0.0 mm 0.00 in0.0 mm
12:49 PM 55.4°F13.0°C 49.4°F9.7°C 80% 2.8 mph ENE4.5 kmh ENE 11.0 mph17.7 kmh 30.21 in1023.0 mb 0.00 in0.0 mm 0.00 in0.0 mm 0.00 in0.0 mm
12:55 PM 55.5°F13.1°C 49.1°F9.5°C 79% 6.3 mph ENE10.1 kmh ENE 12.0 mph19.3 kmh 30.21 in1023.0 mb 0.00 in0.0 mm 0.00 in0.0 mm 0.00 in0.0 mm
01:00 PM 55.6°F13.1°C 49.2°F9.6°C 79% 7.8 mph E12.6 kmh E 13.0 mph20.9 kmh 30.21 in1023.0 mb 0.00 in0.0 mm 0.00 in0.0 mm 0.00 in0.0 mm
01:05 PM 55.5°F13.1°C 49.5°F9.7°C 80% 5.1 mph ENE8.2 kmh ENE 13.0 mph20.9 kmh 30.20 in1022.7 mb 0.00 in0.0 mm 0.00 in0.0 mm 0.00 in0.0 mm
01:10 PM 55.6°F13.1°C 49.6°F9.8°C 80% 3.9 mph ENE6.3 kmh ENE 13.0 mph20.9 kmh 30.20 in1022.7 mb 0.00 in0.0 mm 0.00 in0.0 mm 0.00 in0.0 mm
01:15 PM 55.8°F13.2°C 49.8°F9.9°C 80% 4.8 mph ENE7.7 kmh ENE 13.0 mph20.9 kmh 30.21 in1023.0 mb 0.00 in0.0 mm 0.00 in0.0 mm 0.00 in0.0 mm
01:21 PM 55.8°F13.2°C 49.8°F9.9°C 80% 3.6 mph E5.8 kmh E 13.0 mph20.9 kmh 30.20 in1022.7 mb 0.00 in0.0 mm 0.00 in0.0 mm 0.00 in0.0 mm
01:26 PM 55.9°F13.3°C 49.9°F9.9°C 80% 2.4 mph E3.9 kmh E 12.0 mph19.3 kmh 30.20 in1022.7 mb 0.00 in0.0 mm 0.00 in0.0 mm 0.00 in0.0 mm
01:31 PM 56.1°F13.4°C 50.1°F10.1°C 80% 3.1 mph ENE5.0 kmh ENE 9.0 mph14.5 kmh 30.20 in1022.7 mb 0.00 in0.0 mm 0.00 in0.0 mm 0.00 in0.0 mm
01:36 PM 56.3°F13.5°C 49.9°F9.9°C 79% 6.2 mph E10.0 kmh E 10.0 mph16.1 kmh 30.20 in1022.7 mb 0.00 in0.0 mm 0.00 in0.0 mm 0.00 in0.0 mm
01:41 PM 56.6°F13.7°C 50.5°F10.3°C 80% 7.0 mph E11.3 kmh E 13.0 mph20.9 kmh 30.19 in1022.4 mb 0.00 in0.0 mm 0.00 in0.0 mm 0.00 in0.0 mm
01:47 PM 57.1°F13.9°C 50.7°F10.4°C 79% 6.8 mph ENE10.9 kmh ENE 13.0 mph20.9 kmh 30.19 in1022.4 mb 0.00 in0.0 mm 0.00 in0.0 mm 0.00 in0.0 mm
01:52 PM 57.3°F14.1°C 50.9°F10.5°C 79% 5.1 mph ENE8.2 kmh ENE 13.0 mph20.9 kmh 30.19 in1022.4 mb 0.00 in0.0 mm 0.00 in0.0 mm 0.00 in0.0 mm
01:57 PM 57.8°F14.3°C 51.1°F10.6°C 78% 3.4 mph E5.5 kmh E 13.0 mph20.9 kmh 30.19 in1022.4 mb 0.00 in0.0 mm 0.00 in0.0 mm 0.00 in0.0 mm
02:02 PM 57.8°F14.3°C 51.1°F10.6°C 78% 2.4 mph E3.9 kmh E 13.0 mph20.9 kmh 30.19 in1022.4 mb 0.00 in0.0 mm 0.00 in0.0 mm 0.00 in0.0 mm
02:07 PM 57.8°F14.3°C 51.0°F10.6°C 78% 6.9 mph E11.1 kmh E 13.0 mph20.9 kmh 30.19 in1022.4 mb 0.00 in0.0 mm 0.00 in0.0 mm 0.00 in0.0 mm
02:13 PM 58.0°F14.4°C 51.2°F10.7°C 78% 7.4 mph E11.9 kmh E 13.0 mph20.9 kmh 30.19 in1022.4 mb 0.00 in0.0 mm 0.00 in0.0 mm 0.00 in0.0 mm
02:18 PM 58.0°F14.4°C 51.2°F10.7°C 78% 4.5 mph E7.2 kmh E 13.0 mph20.9 kmh 30.19 in1022.4 mb 0.00 in0.0 mm 0.00 in0.0 mm 0.00 in0.0 mm
02:23 PM 58.2°F14.6°C 51.4°F10.8°C 78% 3.8 mph ENE6.1 kmh ENE 13.0 mph20.9 kmh 30.19 in1022.4 mb 0.00 in0.0 mm 0.00 in0.0 mm 0.00 in0.0 mm
02:28 PM 58.4°F14.7°C 51.6°F10.9°C 78% 5.2 mph E8.4 kmh E 13.0 mph20.9 kmh 30.20 in1022.7 mb 0.00 in0.0 mm 0.00 in0.0 mm 0.00 in0.0 mm
02:33 PM 58.3°F14.6°C 51.5°F10.8°C 78% 2.7 mph E4.3 kmh E 12.0 mph19.3 kmh 30.19 in1022.4 mb 0.00 in0.0 mm 0.00 in0.0 mm 0.00 in0.0 mm
02:39 PM 58.4°F14.7°C 51.6°F10.9°C 78% 7.3 mph ENE11.7 kmh ENE 12.0 mph19.3 kmh 30.20 in1022.7 mb 0.00 in0.0 mm 0.00 in0.0 mm 0.00 in0.0 mm
02:44 PM 58.5°F14.7°C 51.7°F10.9°C 78% 6.7 mph E10.8 kmh E 12.0 mph19.3 kmh 30.19 in1022.4 mb 0.00 in0.0 mm 0.00 in0.0 mm 0.00 in0.0 mm
02:49 PM 58.8°F14.9°C 52.0°F11.1°C 78% 7.4 mph ENE11.9 kmh ENE 12.0 mph19.3 kmh 30.18 in1022.0 mb 0.00 in0.0 mm 0.00 in0.0 mm 0.00 in0.0 mm
02:54 PM 59.1°F15.1°C 52.3°F11.3°C 78% 4.4 mph ENE7.1 kmh ENE 12.0 mph19.3 kmh 30.19 in1022.4 mb 0.00 in0.0 mm 0.00 in0.0 mm 0.00 in0.0 mm
02:59 PM 59.4°F15.2°C 52.2°F11.2°C 77% 2.6 mph ENE4.2 kmh ENE 12.0 mph19.3 kmh 30.19 in1022.4 mb 0.00 in0.0 mm 0.00 in0.0 mm 0.00 in0.0 mm
03:05 PM 59.3°F15.2°C 52.1°F11.2°C 77% 4.7 mph ENE7.6 kmh ENE 12.0 mph19.3 kmh 30.20 in1022.7 mb 0.00 in0.0 mm 0.00 in0.0 mm 0.00 in0.0 mm
03:10 PM 59.5°F15.3°C 52.4°F11.3°C 77% 2.7 mph E4.3 kmh E 12.0 mph19.3 kmh 30.19 in1022.4 mb 0.00 in0.0 mm 0.00 in0.0 mm 0.00 in0.0 mm
03:15 PM 59.6°F15.3°C 52.5°F11.4°C 77% 3.4 mph ENE5.5 kmh ENE 12.0 mph19.3 kmh 30.19 in1022.4 mb 0.00 in0.0 mm 0.00 in0.0 mm 0.00 in0.0 mm
03:20 PM 59.7°F15.4°C 52.9°F11.6°C 78% 3.3 mph E5.3 kmh E 12.0 mph19.3 kmh 30.19 in1022.4 mb 0.00 in0.0 mm 0.00 in0.0 mm 0.00 in0.0 mm
03:26 PM 60.0°F15.6°C 53.2°F11.8°C 78% 3.7 mph E6.0 kmh E 11.0 mph17.7 kmh 30.19 in1022.4 mb 0.00 in0.0 mm 0.00 in0.0 mm 0.00 in0.0 mm
03:31 PM 60.2°F15.7°C 53.4°F11.9°C 78% 3.7 mph E6.0 kmh E 11.0 mph17.7 kmh 30.19 in1022.4 mb 0.00 in0.0 mm 0.00 in0.0 mm 0.00 in0.0 mm
03:36 PM 60.4°F15.8°C 53.6°F12.0°C 78% 7.1 mph E11.4 kmh E 11.0 mph17.7 kmh 30.19 in1022.4 mb 0.00 in0.0 mm 0.00 in0.0 mm 0.00 in0.0 mm
03:41 PM 60.7°F15.9°C 53.9°F12.2°C 78% 4.6 mph E7.4 kmh E 11.0 mph17.7 kmh 30.18 in1022.0 mb 0.00 in0.0 mm 0.00 in0.0 mm 0.00 in0.0 mm
03:46 PM 60.9°F16.1°C 54.1°F12.3°C 78% 5.5 mph E8.9 kmh E 12.0 mph19.3 kmh 30.19 in1022.4 mb 0.00 in0.0 mm 0.00 in0.0 mm 0.00 in0.0 mm
03:52 PM 61.0°F16.1°C 54.1°F12.3°C 78% 7.5 mph E12.1 kmh E 12.0 mph19.3 kmh 30.18 in1022.0 mb 0.00 in0.0 mm 0.00 in0.0 mm 0.00 in0.0 mm
03:57 PM 61.1°F16.2°C 54.2°F12.3°C 78% 4.0 mph E6.4 kmh E 13.0 mph20.9 kmh 30.17 in1021.7 mb 0.00 in0.0 mm 0.00 in0.0 mm 0.00 in0.0 mm
04:02 PM 61.2°F16.2°C 54.3°F12.4°C 78% 5.7 mph E9.2 kmh E 13.0 mph20.9 kmh 30.16 in1021.3 mb 0.00 in0.0 mm 0.00 in0.0 mm 0.00 in0.0 mm
04:07 PM 61.3°F16.3°C 54.5°F12.5°C 78% 6.5 mph E10.5 kmh E 15.0 mph24.1 kmh 30.17 in1021.7 mb 0.00 in0.0 mm 0.00 in0.0 mm 0.00 in0.0 mm
04:11 PM 61.3°F16.3°C 54.5°F12.5°C 78% 5.8 mph E9.3 kmh E 15.0 mph24.1 kmh 30.16 in1021.3 mb 0.00 in0.0 mm 0.00 in0.0 mm 0.00 in0.0 mm
04:16 PM 61.3°F16.3°C 54.5°F12.5°C 78% 7.3 mph E11.7 kmh E 15.0 mph24.1 kmh 30.16 in1021.3 mb 0.00 in0.0 mm 0.00 in0.0 mm 0.00 in0.0 mm
04:22 PM 61.2°F16.2°C 54.4°F12.4°C 78% 4.9 mph E7.9 kmh E 15.0 mph24.1 kmh 30.16 in1021.3 mb 0.00 in0.0 mm 0.00 in0.0 mm 0.00 in0.0 mm
04:27 PM 61.1°F16.2°C 54.3°F12.4°C 78% 9.6 mph E15.4 kmh E 14.0 mph22.5 kmh 30.16 in1021.3 mb 0.00 in0.0 mm 0.00 in0.0 mm 0.00 in0.0 mm
04:32 PM 61.0°F16.1°C 54.2°F12.3°C 78% 5.5 mph ENE8.9 kmh ENE 14.0 mph22.5 kmh 30.16 in1021.3 mb 0.00 in0.0 mm 0.00 in0.0 mm 0.00 in0.0 mm
04:37 PM 60.7°F15.9°C 53.8°F12.1°C 78% 5.5 mph ENE8.9 kmh ENE 14.0 mph22.5 kmh 30.15 in1021.0 mb 0.00 in0.0 mm 0.00 in0.0 mm 0.00 in0.0 mm
04:42 PM 60.5°F15.8°C 54.0°F12.2°C 79% 5.3 mph ENE8.5 kmh ENE 14.0 mph22.5 kmh 30.14 in1020.7 mb 0.00 in0.0 mm 0.00 in0.0 mm 0.00 in0.0 mm
04:48 PM 60.4°F15.8°C 53.9°F12.2°C 79% 5.4 mph ENE8.7 kmh ENE 11.0 mph17.7 kmh 30.14 in1020.7 mb 0.00 in0.0 mm 0.00 in0.0 mm 0.00 in0.0 mm
04:53 PM 60.1°F15.6°C 53.6°F12.0°C 79% 6.5 mph E10.5 kmh E 13.0 mph20.9 kmh 30.14 in1020.7 mb 0.00 in0.0 mm 0.00 in0.0 mm 0.00 in0.0 mm
04:58 PM 60.0°F15.6°C 53.9°F12.2°C 80% 6.2 mph E10.0 kmh E 13.0 mph20.9 kmh 30.14 in1020.7 mb 0.00 in0.0 mm 0.00 in0.0 mm 0.00 in0.0 mm
05:03 PM 59.9°F15.5°C 53.8°F12.1°C 80% 7.6 mph E12.2 kmh E 14.0 mph22.5 kmh 30.13 in1020.3 mb 0.00 in0.0 mm 0.00 in0.0 mm 0.00 in0.0 mm
05:08 PM 59.8°F15.4°C 53.7°F12.1°C 80% 7.0 mph E11.3 kmh E 16.0 mph25.7 kmh 30.13 in1020.3 mb 0.00 in0.0 mm 0.00 in0.0 mm 0.00 in0.0 mm
05:14 PM 59.6°F15.3°C 53.5°F11.9°C 80% 7.5 mph E12.1 kmh E 16.0 mph25.7 kmh 30.14 in1020.7 mb 0.00 in0.0 mm 0.00 in0.0 mm 0.00 in0.0 mm
05:19 PM 59.5°F15.3°C 53.4°F11.9°C 80% 3.8 mph E6.1 kmh E 16.0 mph25.7 kmh 30.15 in1021.0 mb 0.00 in0.0 mm 0.00 in0.0 mm 0.00 in0.0 mm
05:24 PM 59.4°F15.2°C 53.6°F12.0°C 81% 6.0 mph E9.7 kmh E 16.0 mph25.7 kmh 30.15 in1021.0 mb 0.00 in0.0 mm 0.00 in0.0 mm 0.00 in0.0 mm
05:29 PM 59.4°F15.2°C 53.6°F12.0°C 81% 7.9 mph E12.7 kmh E 15.0 mph24.1 kmh 30.14 in1020.7 mb 0.00 in0.0 mm 0.00 in0.0 mm 0.00 in0.0 mm
05:34 PM 59.3°F15.2°C 53.5°F11.9°C 81% 10.4 mph E16.7 kmh E 15.0 mph24.1 kmh 30.13 in1020.3 mb 0.00 in0.0 mm 0.00 in0.0 mm 0.00 in0.0 mm
05:40 PM 59.2°F15.1°C 53.4°F11.9°C 81% 6.5 mph E10.5 kmh E 15.0 mph24.1 kmh 30.13 in1020.3 mb 0.00 in0.0 mm 0.00 in0.0 mm 0.00 in0.0 mm
05:45 PM 59.2°F15.1°C 53.7°F12.1°C 82% 4.7 mph E7.6 kmh E 15.0 mph24.1 kmh 30.14 in1020.7 mb 0.00 in0.0 mm 0.00 in0.0 mm 0.00 in0.0 mm
05:50 PM 58.9°F14.9°C 54.1°F12.3°C 84% 4.9 mph E7.9 kmh E 14.0 mph22.5 kmh 30.15 in1021.0 mb 0.00 in0.0 mm 0.00 in0.0 mm 0.00 in0.0 mm
05:55 PM 58.5°F14.7°C 54.0°F12.2°C 85% 3.4 mph ESE5.5 kmh ESE 13.0 mph20.9 kmh 30.17 in1021.7 mb 0.00 in0.0 mm 0.00 in0.0 mm 0.00 in0.0 mm
06:00 PM 58.3°F14.6°C 54.1°F12.3°C 86% 2.5 mph E4.0 kmh E 10.0 mph16.1 kmh 30.18 in1022.0 mb 0.00 in0.0 mm 0.00 in0.0 mm 0.00 in0.0 mm
06:06 PM 58.2°F14.6°C 54.3°F12.4°C 87% 2.8 mph E4.5 kmh E 9.0 mph14.5 kmh 30.17 in1021.7 mb 0.00 in0.0 mm 0.00 in0.0 mm 0.00 in0.0 mm
06:11 PM 58.0°F14.4°C 54.1°F12.3°C 87% 5.4 mph E8.7 kmh E 11.0 mph17.7 kmh 30.17 in1021.7 mb 0.01 in0.3 mm 0.12 in3.0 mm 0.01 in0.3 mm
06:16 PM 57.6°F14.2°C 54.4°F12.4°C 89% 5.6 mph E9.0 kmh E 11.0 mph17.7 kmh 30.15 in1021.0 mb 0.02 in0.5 mm 0.12 in3.0 mm 0.02 in0.5 mm
06:21 PM 57.2°F14.0°C 54.3°F12.4°C 90% 7.9 mph E12.7 kmh E 11.0 mph17.7 kmh 30.15 in1021.0 mb 0.03 in0.8 mm 0.12 in3.0 mm 0.03 in0.8 mm
06:26 PM 57.0°F13.9°C 54.4°F12.4°C 91% 5.2 mph E8.4 kmh E 11.0 mph17.7 kmh 30.15 in1021.0 mb 0.03 in0.8 mm 0.00 in0.0 mm 0.03 in0.8 mm
06:32 PM 56.9°F13.8°C 54.3°F12.4°C 91% 3.6 mph E5.8 kmh E 13.0 mph20.9 kmh 30.16 in1021.3 mb 0.03 in0.8 mm 0.00 in0.0 mm 0.03 in0.8 mm
06:37 PM 56.9°F13.8°C 54.3°F12.4°C 91% 1.6 mph ENE2.6 kmh ENE 13.0 mph20.9 kmh 30.17 in1021.7 mb 0.03 in0.8 mm 0.00 in0.0 mm 0.03 in0.8 mm
06:42 PM 57.1°F13.9°C 54.5°F12.5°C 91% 3.5 mph E5.6 kmh E 13.0 mph20.9 kmh 30.17 in1021.7 mb 0.03 in0.8 mm 0.00 in0.0 mm 0.03 in0.8 mm
06:47 PM 57.1°F13.9°C 54.5°F12.5°C 91% 2.6 mph ENE4.2 kmh ENE 10.0 mph16.1 kmh 30.17 in1021.7 mb 0.03 in0.8 mm 0.00 in0.0 mm 0.03 in0.8 mm
06:52 PM 57.0°F13.9°C 54.7°F12.6°C 92% 3.4 mph ENE5.5 kmh ENE 7.0 mph11.3 kmh 30.17 in1021.7 mb 0.03 in0.8 mm 0.00 in0.0 mm 0.03 in0.8 mm
06:58 PM 56.9°F13.8°C 54.6°F12.6°C 92% 2.3 mph E3.7 kmh E 7.0 mph11.3 kmh 30.17 in1021.7 mb 0.03 in0.8 mm 0.00 in0.0 mm 0.03 in0.8 mm
07:03 PM 56.8°F13.8°C 54.5°F12.5°C 92% 3.3 mph ENE5.3 kmh ENE 7.0 mph11.3 kmh 30.17 in1021.7 mb 0.04 in1.0 mm 0.01 in0.3 mm 0.04 in1.0 mm
07:08 PM 56.7°F13.7°C 54.4°F12.4°C 92% 3.4 mph ENE5.5 kmh ENE 8.0 mph12.9 kmh 30.16 in1021.3 mb 0.03 in0.8 mm 0.00 in0.0 mm 0.04 in1.0 mm
07:13 PM 56.7°F13.7°C 54.7°F12.6°C 93% 4.5 mph ENE7.2 kmh ENE 9.0 mph14.5 kmh 30.15 in1021.0 mb 0.02 in0.5 mm 0.00 in0.0 mm 0.04 in1.0 mm
07:18 PM 56.6°F13.7°C 54.6°F12.6°C 93% 8.4 mph ENE13.5 kmh ENE 14.0 mph22.5 kmh 30.15 in1021.0 mb 0.03 in0.8 mm 0.12 in3.0 mm 0.05 in1.3 mm
07:24 PM 56.6°F13.7°C 54.6°F12.6°C 93% 6.9 mph ENE11.1 kmh ENE 14.0 mph22.5 kmh 30.14 in1020.7 mb 0.02 in0.5 mm 0.00 in0.0 mm 0.05 in1.3 mm
07:29 PM 56.5°F13.6°C 54.8°F12.7°C 94% 8.4 mph ENE13.5 kmh ENE 17.0 mph27.4 kmh 30.14 in1020.7 mb 0.02 in0.5 mm 0.00 in0.0 mm 0.05 in1.3 mm
07:34 PM 56.4°F13.6°C 54.7°F12.6°C 94% 6.9 mph E11.1 kmh E 17.0 mph27.4 kmh 30.14 in1020.7 mb 0.02 in0.5 mm 0.00 in0.0 mm 0.05 in1.3 mm
07:39 PM 56.3°F13.5°C 54.6°F12.6°C 94% 9.5 mph E15.3 kmh E 17.0 mph27.4 kmh 30.14 in1020.7 mb 0.02 in0.5 mm 0.00 in0.0 mm 0.05 in1.3 mm
07:44 PM 56.2°F13.4°C 54.5°F12.5°C 94% 5.9 mph ENE9.5 kmh ENE 17.0 mph27.4 kmh 30.15 in1021.0 mb 0.03 in0.8 mm 0.12 in3.0 mm 0.06 in1.5 mm
07:50 PM 56.1°F13.4°C 54.6°F12.6°C 95% 7.5 mph E12.1 kmh E 15.0 mph24.1 kmh 30.14 in1020.7 mb 0.03 in0.8 mm 0.00 in0.0 mm 0.06 in1.5 mm
07:55 PM 56.0°F13.3°C 54.5°F12.5°C 95% 7.5 mph ENE12.1 kmh ENE 15.0 mph24.1 kmh 30.14 in1020.7 mb 0.04 in1.0 mm 0.12 in3.0 mm 0.07 in1.8 mm
08:00 PM 55.9°F13.3°C 54.5°F12.5°C 95% 7.7 mph ENE12.4 kmh ENE 15.0 mph24.1 kmh 30.14 in1020.7 mb 0.04 in1.0 mm 0.00 in0.0 mm 0.07 in1.8 mm
08:05 PM 55.8°F13.2°C 54.4°F12.4°C 95% 7.1 mph E11.4 kmh E 13.0 mph20.9 kmh 30.14 in1020.7 mb 0.03 in0.8 mm 0.00 in0.0 mm 0.07 in1.8 mm
08:10 PM 55.8°F13.2°C 54.4°F12.4°C 95% 6.5 mph ENE10.5 kmh ENE 12.0 mph19.3 kmh 30.14 in1020.7 mb 0.03 in0.8 mm 0.00 in0.0 mm 0.07 in1.8 mm
08:16 PM 55.7°F13.2°C 54.5°F12.5°C 96% 4.5 mph E7.2 kmh E 12.0 mph19.3 kmh 30.14 in1020.7 mb 0.03 in0.8 mm 0.00 in0.0 mm 0.07 in1.8 mm
08:21 PM 55.7°F13.2°C 54.5°F12.5°C 96% 6.4 mph E10.3 kmh E 11.0 mph17.7 kmh 30.14 in1020.7 mb 0.02 in0.5 mm 0.00 in0.0 mm 0.07 in1.8 mm
08:26 PM 55.7°F13.2°C 54.6°F12.6°C 96% 6.3 mph E10.1 kmh E 11.0 mph17.7 kmh 30.14 in1020.7 mb 0.02 in0.5 mm 0.00 in0.0 mm 0.07 in1.8 mm
08:31 PM 55.8°F13.2°C 54.6°F12.6°C 96% 4.5 mph E7.2 kmh E 11.0 mph17.7 kmh 30.14 in1020.7 mb 0.02 in0.5 mm 0.00 in0.0 mm 0.07 in1.8 mm
08:36 PM 55.8°F13.2°C 54.6°F12.6°C 96% 3.4 mph E5.5 kmh E 11.0 mph17.7 kmh 30.14 in1020.7 mb 0.02 in0.5 mm 0.00 in0.0 mm 0.07 in1.8 mm
08:42 PM 55.9°F13.3°C 54.7°F12.6°C 96% 6.2 mph E10.0 kmh E 11.0 mph17.7 kmh 30.14 in1020.7 mb 0.01 in0.3 mm 0.00 in0.0 mm 0.07 in1.8 mm
08:47 PM 55.9°F13.3°C 54.7°F12.6°C 96% 4.1 mph E6.6 kmh E 10.0 mph16.1 kmh 30.14 in1020.7 mb 0.01 in0.3 mm 0.00 in0.0 mm 0.07 in1.8 mm
08:52 PM 56.0°F13.3°C 54.8°F12.7°C 96% 5.6 mph E9.0 kmh E 11.0 mph17.7 kmh 30.14 in1020.7 mb 0.03 in0.8 mm 0.24 in6.1 mm 0.09 in2.3 mm
08:57 PM 56.1°F13.4°C 55.2°F12.9°C 97% 7.0 mph E11.3 kmh E 12.0 mph19.3 kmh 30.14 in1020.7 mb 0.03 in0.8 mm 0.00 in0.0 mm 0.10 in2.5 mm
09:02 PM 56.1°F13.4°C 55.3°F12.9°C 97% 3.4 mph E5.5 kmh E 12.0 mph19.3 kmh 30.14 in1020.7 mb 0.04 in1.0 mm 0.01 in0.3 mm 0.11 in2.8 mm
09:08 PM 56.2°F13.4°C 55.4°F13.0°C 97% 1.7 mph ENE2.7 kmh ENE 12.0 mph19.3 kmh 30.14 in1020.7 mb 0.04 in1.0 mm 0.00 in0.0 mm 0.11 in2.8 mm
09:12 PM 56.3°F13.5°C 55.4°F13.0°C 97% 2.1 mph E3.4 kmh E 12.0 mph19.3 kmh 30.14 in1020.7 mb 0.04 in1.0 mm 0.00 in0.0 mm 0.11 in2.8 mm
09:17 PM 56.4°F13.6°C 55.5°F13.1°C 97% 3.9 mph E6.3 kmh E 7.0 mph11.3 kmh 30.13 in1020.3 mb 0.05 in1.3 mm 0.12 in3.0 mm 0.12 in3.0 mm
09:23 PM 56.5°F13.6°C 55.6°F13.1°C 97% 4.0 mph ENE6.4 kmh ENE 13.0 mph20.9 kmh 30.13 in1020.3 mb 0.05 in1.3 mm 0.00 in0.0 mm 0.12 in3.0 mm
09:28 PM 56.6°F13.7°C 55.7°F13.2°C 97% 3.1 mph E5.0 kmh E 13.0 mph20.9 kmh 30.13 in1020.3 mb 0.05 in1.3 mm 0.00 in0.0 mm 0.12 in3.0 mm
09:33 PM 56.6°F13.7°C 55.7°F13.2°C 97% 4.4 mph E7.1 kmh E 13.0 mph20.9 kmh 30.13 in1020.3 mb 0.05 in1.3 mm 0.00 in0.0 mm 0.12 in3.0 mm
09:38 PM 56.7°F13.7°C 55.8°F13.2°C 97% 7.0 mph E11.3 kmh E 13.0 mph20.9 kmh 30.12 in1020.0 mb 0.05 in1.3 mm 0.00 in0.0 mm 0.12 in3.0 mm
09:43 PM 56.8°F13.8°C 55.9°F13.3°C 97% 5.3 mph E8.5 kmh E 13.0 mph20.9 kmh 30.12 in1020.0 mb 0.05 in1.3 mm 0.00 in0.0 mm 0.12 in3.0 mm
09:48 PM 57.0°F13.9°C 56.1°F13.4°C 97% 4.5 mph E7.2 kmh E 11.0 mph17.7 kmh 30.12 in1020.0 mb 0.05 in1.3 mm 0.00 in0.0 mm 0.12 in3.0 mm
09:53 PM 56.9°F13.8°C 56.0°F13.3°C 97% 2.9 mph E4.7 kmh E 11.0 mph17.7 kmh 30.12 in1020.0 mb 0.03 in0.8 mm 0.00 in0.0 mm 0.12 in3.0 mm
09:58 PM 56.9°F13.8°C 56.0°F13.3°C 97% 2.9 mph E4.7 kmh E 11.0 mph17.7 kmh 30.11 in1019.6 mb 0.02 in0.5 mm 0.00 in0.0 mm 0.12 in3.0 mm
10:03 PM 57.0°F13.9°C 56.2°F13.4°C 97% 4.7 mph E7.6 kmh E 10.0 mph16.1 kmh 30.11 in1019.6 mb 0.01 in0.3 mm 0.00 in0.0 mm 0.12 in3.0 mm
10:08 PM 57.0°F13.9°C 56.1°F13.4°C 97% 7.2 mph ENE11.6 kmh ENE 11.0 mph17.7 kmh 30.10 in1019.3 mb 0.01 in0.3 mm 0.00 in0.0 mm 0.12 in3.0 mm
10:13 PM 57.0°F13.9°C 56.1°F13.4°C 97% 4.0 mph E6.4 kmh E 11.0 mph17.7 kmh 30.10 in1019.3 mb 0.01 in0.3 mm 0.00 in0.0 mm 0.12 in3.0 mm
10:18 PM 57.0°F13.9°C 56.1°F13.4°C 97% 3.1 mph E5.0 kmh E 11.0 mph17.7 kmh 30.11 in1019.6 mb 0.00 in0.0 mm 0.00 in0.0 mm 0.12 in3.0 mm
10:23 PM 57.1°F13.9°C 56.2°F13.4°C 97% 3.9 mph E6.3 kmh E 11.0 mph17.7 kmh 30.11 in1019.6 mb 0.00 in0.0 mm 0.00 in0.0 mm 0.12 in3.0 mm
10:28 PM 57.2°F14.0°C 56.6°F13.7°C 98% 2.3 mph E3.7 kmh E 10.0 mph16.1 kmh 30.10 in1019.3 mb 0.00 in0.0 mm 0.00 in0.0 mm 0.12 in3.0 mm
10:33 PM 57.3°F14.1°C 56.7°F13.7°C 98% 2.3 mph E3.7 kmh E 10.0 mph16.1 kmh 30.10 in1019.3 mb 0.00 in0.0 mm 0.00 in0.0 mm 0.12 in3.0 mm
10:38 PM 57.4°F14.1°C 56.8°F13.8°C 98% 1.3 mph E2.1 kmh E 10.0 mph16.1 kmh 30.10 in1019.3 mb 0.00 in0.0 mm 0.00 in0.0 mm 0.12 in3.0 mm
10:43 PM 57.6°F14.2°C 57.0°F13.9°C 98% 2.6 mph E4.2 kmh E 6.0 mph9.7 kmh 30.10 in1019.3 mb 0.00 in0.0 mm 0.00 in0.0 mm 0.12 in3.0 mm
10:48 PM 57.7°F14.3°C 57.1°F13.9°C 98% 2.0 mph E3.2 kmh E 6.0 mph9.7 kmh 30.10 in1019.3 mb 0.00 in0.0 mm 0.00 in0.0 mm 0.12 in3.0 mm
10:53 PM 57.9°F14.4°C 57.3°F14.1°C 98% 2.8 mph E4.5 kmh E 6.0 mph9.7 kmh 30.10 in1019.3 mb 0.00 in0.0 mm 0.00 in0.0 mm 0.12 in3.0 mm
10:58 PM 58.1°F14.5°C 57.5°F14.2°C 98% 4.0 mph E6.4 kmh E 9.0 mph14.5 kmh 30.09 in1019.0 mb 0.00 in0.0 mm 0.00 in0.0 mm 0.12 in3.0 mm
11:03 PM 58.3°F14.6°C 57.7°F14.3°C 98% 2.7 mph ESE4.3 kmh ESE 10.0 mph16.1 kmh 30.09 in1019.0 mb 0.00 in0.0 mm 0.00 in0.0 mm 0.12 in3.0 mm
11:08 PM 58.6°F14.8°C 58.0°F14.4°C 98% 1.9 mph ESE3.1 kmh ESE 10.0 mph16.1 kmh 30.09 in1019.0 mb 0.00 in0.0 mm 0.00 in0.0 mm 0.12 in3.0 mm
11:13 PM 58.8°F14.9°C 58.2°F14.6°C 98% 3.2 mph E5.1 kmh E 10.0 mph16.1 kmh 30.09 in1019.0 mb 0.00 in0.0 mm 0.00 in0.0 mm 0.12 in3.0 mm
11:18 PM 59.0°F15.0°C 58.4°F14.7°C 98% 1.7 mph ESE2.7 kmh ESE 10.0 mph16.1 kmh 30.09 in1019.0 mb 0.00 in0.0 mm 0.00 in0.0 mm 0.12 in3.0 mm
11:23 PM 59.3°F15.2°C 58.7°F14.8°C 98% 2.1 mph SE3.4 kmh SE 7.0 mph11.3 kmh 30.09 in1019.0 mb 0.00 in0.0 mm 0.00 in0.0 mm 0.12 in3.0 mm
11:28 PM 59.4°F15.2°C 58.8°F14.9°C 98% 2.1 mph SE3.4 kmh SE 7.0 mph11.3 kmh 30.09 in1019.0 mb 0.00 in0.0 mm 0.00 in0.0 mm 0.12 in3.0 mm
11:33 PM 59.7°F15.4°C 59.1°F15.1°C 98% 2.9 mph ESE4.7 kmh ESE 7.0 mph11.3 kmh 30.08 in1018.6 mb 0.00 in0.0 mm 0.00 in0.0 mm 0.12 in3.0 mm
11:38 PM 59.9°F15.5°C 59.3°F15.2°C 98% 3.3 mph ESE5.3 kmh ESE 7.0 mph11.3 kmh 30.08 in1018.6 mb 0.00 in0.0 mm 0.00 in0.0 mm 0.12 in3.0 mm
11:43 PM 60.3°F15.7°C 59.7°F15.4°C 98% 3.0 mph SE4.8 kmh SE 7.0 mph11.3 kmh 30.08 in1018.6 mb 0.00 in0.0 mm 0.00 in0.0 mm 0.12 in3.0 mm
11:48 PM 60.6°F15.9°C 60.0°F15.6°C 98% 2.9 mph SE4.7 kmh SE 7.0 mph11.3 kmh 30.08 in1018.6 mb 0.00 in0.0 mm 0.00 in0.0 mm 0.12 in3.0 mm
11:53 PM 60.9°F16.1°C 60.3°F15.7°C 98% 1.7 mph SE2.7 kmh SE 7.0 mph11.3 kmh 30.08 in1018.6 mb 0.00 in0.0 mm 0.00 in0.0 mm 0.12 in3.0 mm
11:58 PM 61.3°F16.3°C 60.7°F15.9°C 98% 2.7 mph SE4.3 kmh SE 6.0 mph9.7 kmh 30.08 in1018.6 mb 0.00 in0.0 mm 0.00 in0.0 mm 0.12 in3.0 mm